Terminal Aerodrome Forecast
Issued by NWS

Home | Current Version | Previous Version | Text Only | Print | Product List | Glossary On
Versions: 1 2 3 4 5 6 7 8 9 10 11 12 13 14 15 16 17 18
000
FTUS43 KDMX 251439 AAA
TAFFOD
TAF AMD
KFOD 251439Z 2515/2612 18015G19KT P6SM SCT250
     FM251600 17012G19KT P6SM FEW250
     FM260100 17009KT P6SM BKN200=

USA.gov is the U.S. government's official web portal to all federal, state and local government web resources and services.